Time;durP1;ratioP1;P1;durP2;ratioP2;P2;SDS_P1;SDS_P2;PMS_P1;PMS_P2;Temp;Humidity;BMP_temperature;BMP_pressure;BME280_temperature;BME280_humidity;BME280_pressure;Samples;Min_cycle;Max_cycle;Signal;HPM_P1;HPM_P2
2022/05/20 00:00:34;;;;;;;0.68;0.68;;;14.20;99.90;;;;;;5015513;28;20052;-70
2022/05/20 00:03:00;;;;;;;0.57;0.57;;;14.10;99.90;;;;;;5015568;28;20117;-70
2022/05/20 00:05:27;;;;;;;0.20;0.20;;;14.10;99.90;;;;;;5015087;28;20533;-70
2022/05/20 00:07:56;;;;;;;0.50;0.50;;;14.10;99.90;;;;;;4997193;28;20038;-70
2022/05/20 00:10:23;;;;;;;0.95;0.60;;;14.10;99.90;;;;;;5015476;28;20077;-69
2022/05/20 00:12:48;;;;;;;0.85;0.52;;;14.10;99.90;;;;;;5015260;28;20093;-71
2022/05/20 00:15:20;;;;;;;0.40;0.40;;;14.10;99.90;;;;;;5015261;28;20430;-70
2022/05/20 00:17:46;;;;;;;0.40;0.40;;;14.00;99.90;;;;;;5015498;28;20038;-70
2022/05/20 00:20:13;;;;;;;0.40;0.40;;;14.00;99.90;;;;;;4998155;28;20057;-69
2022/05/20 00:22:39;;;;;;;0.50;0.50;;;14.00;99.90;;;;;;5014699;28;20042;-71
2022/05/20 00:27:50;;;;;;;0.43;0.40;;;14.10;99.90;;;;;;5015461;28;20046;-70
2022/05/20 00:30:16;;;;;;;0.40;0.40;;;14.00;99.90;;;;;;4997958;28;20053;-71
2022/05/20 00:32:42;;;;;;;0.30;0.30;;;14.00;99.90;;;;;;5015205;28;20049;-69
2022/05/20 00:35:09;;;;;;;0.43;0.43;;;14.00;99.90;;;;;;5014698;28;20046;-69
2022/05/20 00:37:35;;;;;;;0.43;0.43;;;14.00;99.90;;;;;;5014657;28;20046;-70
2022/05/20 00:40:00;;;;;;;0.60;0.60;;;14.00;99.90;;;;;;5031048;28;20131;-70
2022/05/20 00:42:26;;;;;;;0.45;0.45;;;14.00;99.90;;;;;;5034769;28;20067;-70
2022/05/20 00:44:51;;;;;;;0.80;0.80;;;14.00;99.90;;;;;;5034637;28;20106;-69
2022/05/20 00:47:17;;;;;;;0.60;0.60;;;14.00;99.90;;;;;;5034896;28;20471;-70
2022/05/20 00:49:49;;;;;;;1.38;0.70;;;14.00;99.90;;;;;;5034731;28;20377;-71
2022/05/20 00:52:19;;;;;;;0.43;0.43;;;14.10;99.90;;;;;;5034385;28;20060;-70
2022/05/20 00:54:51;;;;;;;1.65;0.50;;;14.10;99.90;;;;;;5034874;28;20350;-71
2022/05/20 00:57:24;;;;;;;1.02;0.90;;;14.10;99.90;;;;;;5017204;28;20515;-70
2022/05/20 00:59:57;;;;;;;0.55;0.55;;;14.00;99.90;;;;;;5034715;28;20103;-70
2022/05/20 01:02:24;;;;;;;0.50;0.50;;;13.90;99.90;;;;;;4999787;28;20065;-71
2022/05/20 01:04:56;;;;;;;0.52;0.52;;;13.90;99.90;;;;;;5034607;28;20057;-69
2022/05/20 01:07:21;;;;;;;0.82;0.60;;;13.90;99.90;;;;;;5000045;28;20053;-70
2022/05/20 01:09:47;;;;;;;0.40;0.40;;;13.80;99.90;;;;;;5015130;28;20037;-70
2022/05/20 01:12:12;;;;;;;0.60;0.60;;;13.80;99.90;;;;;;5014666;28;20056;-69
2022/05/20 01:14:38;;;;;;;0.40;0.40;;;13.80;99.90;;;;;;5014791;28;20133;-70
2022/05/20 01:17:04;;;;;;;0.40;0.40;;;13.70;99.90;;;;;;4997723;28;20151;-69
2022/05/20 01:19:51;;;;;;;0.52;0.52;;;13.60;99.90;;;;;;4997648;28;20038;-70
2022/05/20 01:22:48;;;;;;;0.43;0.43;;;13.60;99.90;;;;;;5032400;28;20048;-69
2022/05/20 01:25:13;;;;;;;0.30;0.30;;;13.40;99.90;;;;;;5034256;28;20358;-71
2022/05/20 01:27:42;;;;;;;0.40;0.40;;;13.30;99.90;;;;;;5017123;28;20045;-70
2022/05/20 01:30:13;;;;;;;1.00;1.00;;;13.20;99.90;;;;;;5017596;28;20465;-70
2022/05/20 01:32:39;;;;;;;0.50;0.50;;;13.10;99.90;;;;;;5034384;28;20150;-69
2022/05/20 01:35:09;;;;;;;0.32;0.32;;;13.00;99.90;;;;;;5034062;28;20097;-70
2022/05/20 01:37:35;;;;;;;0.40;0.40;;;12.80;99.90;;;;;;5033872;28;20064;-72
2022/05/20 01:40:00;;;;;;;0.50;0.50;;;12.70;99.90;;;;;;5014048;28;20513;-69
2022/05/20 01:42:38;;;;;;;0.60;0.60;;;12.60;99.90;;;;;;5015817;28;20446;-69
2022/05/20 01:45:15;;;;;;;0.50;0.50;;;12.50;99.90;;;;;;5014699;28;20046;-70
2022/05/20 01:47:53;;;;;;;0.35;0.35;;;12.50;99.90;;;;;;5014247;28;20042;-70
2022/05/20 01:50:38;;;;;;;0.70;0.70;;;12.40;99.90;;;;;;5014407;28;20064;-69
2022/05/20 01:53:13;;;;;;;0.50;0.50;;;12.40;99.90;;;;;;5033645;28;20453;-70
2022/05/20 01:55:47;;;;;;;0.40;0.40;;;12.40;99.90;;;;;;5034947;28;20041;-70
2022/05/20 01:58:26;;;;;;;0.40;0.40;;;12.40;99.90;;;;;;5020478;28;20053;-69
2022/05/20 02:00:58;;;;;;;0.50;0.50;;;12.40;99.90;;;;;;5037660;28;20116;-70
2022/05/20 02:03:31;;;;;;;0.65;0.65;;;12.30;99.90;;;;;;5037575;28;20137;-68
2022/05/20 02:06:29;;;;;;;1.00;0.90;;;12.30;99.90;;;;;;5037449;28;20466;-70
2022/05/20 02:08:59;;;;;;;0.55;0.55;;;12.40;99.90;;;;;;5021798;28;20057;-70
2022/05/20 02:11:36;;;;;;;0.50;0.50;;;12.30;99.90;;;;;;5001437;28;20065;-70
2022/05/20 02:14:23;;;;;;;0.50;0.50;;;12.20;99.90;;;;;;5017632;28;20042;-69
2022/05/20 02:17:01;;;;;;;1.55;0.60;;;12.20;99.90;;;;;;5017559;28;20531;-70
2022/05/20 02:19:36;;;;;;;0.50;0.50;;;12.30;99.90;;;;;;4999788;28;20061;-69
2022/05/20 02:22:05;;;;;;;0.55;0.55;;;12.20;99.90;;;;;;5000424;28;20458;-71
2022/05/20 02:24:33;;;;;;;0.63;0.63;;;12.20;99.90;;;;;;5017566;28;20061;-71
2022/05/20 02:27:02;;;;;;;0.82;0.82;;;12.20;99.90;;;;;;5017356;28;20046;-69
2022/05/20 02:29:58;;;;;;;0.70;0.52;;;12.20;99.90;;;;;;5017367;28;20379;-70
2022/05/20 02:32:32;;;;;;;0.55;0.55;;;12.10;99.90;;;;;;5013146;28;20204;-70
2022/05/20 02:34:57;;;;;;;0.30;0.30;;;12.10;99.90;;;;;;5017244;28;20053;-71
2022/05/20 02:37:29;;;;;;;2.58;1.80;;;12.00;99.90;;;;;;5017201;28;20057;-70
2022/05/20 02:39:55;;;;;;;0.35;0.35;;;12.00;99.90;;;;;;5027450;28;20041;-69
2022/05/20 02:42:21;;;;;;;0.50;0.50;;;11.90;99.90;;;;;;5036437;28;20052;-70
2022/05/20 02:44:47;;;;;;;0.47;0.47;;;11.80;99.90;;;;;;5019541;28;20049;-71
2022/05/20 02:47:13;;;;;;;0.73;0.73;;;11.80;99.90;;;;;;5036693;28;20362;-70
2022/05/20 02:49:38;;;;;;;0.30;0.30;;;11.80;99.90;;;;;;5036583;28;20065;-69
2022/05/20 02:52:05;;;;;;;0.50;0.50;;;11.70;99.90;;;;;;5037169;28;20045;-69
2022/05/20 02:54:31;;;;;;;0.45;0.45;;;11.70;99.90;;;;;;5036212;28;20050;-71
2022/05/20 02:56:56;;;;;;;0.60;0.60;;;11.70;99.90;;;;;;5036339;28;20046;-69
2022/05/20 03:04:50;;;;;;;0.70;0.70;;;11.60;99.90;;;;;;5036491;28;20053;-70
2022/05/20 03:07:15;;;;;;;0.47;0.47;;;11.50;99.90;;;;;;5035369;28;20037;-71
2022/05/20 03:09:41;;;;;;;0.82;0.60;;;11.40;99.90;;;;;;5022914;28;20193;-69
2022/05/20 03:12:07;;;;;;;0.55;0.55;;;11.50;99.90;;;;;;5016527;28;20064;-71
2022/05/20 03:14:33;;;;;;;0.30;0.30;;;11.40;99.90;;;;;;5016701;28;20505;-69
2022/05/20 03:17:00;;;;;;;0.52;0.52;;;11.30;99.90;;;;;;5016901;28;20376;-70
2022/05/20 03:19:30;;;;;;;6.65;1.02;;;11.30;99.90;;;;;;5016208;28;20034;-70
2022/05/20 03:22:06;;;;;;;0.45;0.45;;;11.20;99.90;;;;;;5016097;28;20049;-71
2022/05/20 03:24:32;;;;;;;0.57;0.57;;;11.20;99.90;;;;;;5016187;28;20112;-70
2022/05/20 03:26:58;;;;;;;0.47;0.47;;;11.20;99.90;;;;;;5015832;28;20137;-69
2022/05/20 03:29:24;;;;;;;0.52;0.52;;;11.10;99.90;;;;;;5016223;28;20216;-71
2022/05/20 03:31:50;;;;;;;0.52;0.50;;;11.10;99.90;;;;;;5015706;28;20053;-69
2022/05/20 03:34:17;;;;;;;0.40;0.40;;;11.10;99.90;;;;;;5016033;28;20053;-71
2022/05/20 03:36:48;;;;;;;0.82;0.82;;;11.10;99.90;;;;;;5015464;28;20053;-69
2022/05/20 03:39:17;;;;;;;0.43;0.43;;;11.00;99.90;;;;;;5015434;28;20406;-69
2022/05/20 03:41:43;;;;;;;0.40;0.40;;;11.00;99.90;;;;;;5015451;28;20046;-70
2022/05/20 03:44:11;;;;;;;1.05;0.70;;;11.00;99.90;;;;;;5016012;28;20042;-69
2022/05/20 03:46:41;;;;;;;0.43;0.43;;;11.00;99.90;;;;;;5014867;28;20042;-71
2022/05/20 03:49:06;;;;;;;0.60;0.60;;;11.00;99.90;;;;;;5014793;28;20058;-70
2022/05/20 03:51:33;;;;;;;0.43;0.43;;;11.00;99.90;;;;;;5014772;28;20369;-70
2022/05/20 03:53:58;;;;;;;0.50;0.50;;;11.00;99.90;;;;;;5015551;28;20056;-71
2022/05/20 03:56:24;;;;;;;0.52;0.52;;;11.00;99.90;;;;;;5014815;28;20140;-69
2022/05/20 03:58:49;;;;;;;0.95;0.75;;;11.00;99.90;;;;;;5015328;28;20351;-72
2022/05/20 04:04:00;;;;;;;0.50;0.50;;;11.00;99.90;;;;;;5015804;28;20049;-71
2022/05/20 04:06:25;;;;;;;0.50;0.50;;;11.00;99.90;;;;;;5015729;28;20048;-70
2022/05/20 04:08:51;;;;;;;0.88;0.88;;;11.00;99.90;;;;;;5015398;28;20152;-69
2022/05/20 04:11:17;;;;;;;0.73;0.73;;;11.00;99.90;;;;;;5015407;28;20105;-71
2022/05/20 04:13:43;;;;;;;0.40;0.40;;;11.10;99.90;;;;;;4998388;28;20093;-70
2022/05/20 04:16:11;;;;;;;0.63;0.60;;;11.10;99.90;;;;;;5014688;28;20046;-70
2022/05/20 04:18:43;;;;;;;0.52;0.52;;;11.20;99.90;;;;;;5014980;28;20054;-71
2022/05/20 04:21:10;;;;;;;0.88;0.88;;;11.20;99.90;;;;;;5015292;28;20045;-71
2022/05/20 04:23:36;;;;;;;0.73;0.73;;;11.30;99.90;;;;;;5015550;28;20049;-69
2022/05/20 04:26:02;;;;;;;0.95;0.70;;;11.40;99.90;;;;;;5015328;28;20052;-72
2022/05/20 04:28:28;;;;;;;0.52;0.52;;;11.50;99.90;;;;;;4995545;28;20068;-71
2022/05/20 04:30:57;;;;;;;0.80;0.80;;;11.70;99.90;;;;;;5014398;28;20777;-70
2022/05/20 04:33:24;;;;;;;2.42;1.15;;;11.70;99.90;;;;;;5014614;28;20459;-70
2022/05/20 04:35:50;;;;;;;0.77;0.77;;;11.80;99.90;;;;;;5014797;28;20045;-72
2022/05/20 04:38:16;;;;;;;0.95;0.80;;;11.90;99.90;;;;;;5014799;28;20058;-70
2022/05/20 04:40:41;;;;;;;0.95;0.52;;;12.00;99.90;;;;;;5015156;28;20046;-70
2022/05/20 04:48:36;;;;;;;0.77;0.77;;;12.10;99.90;;;;;;5022731;28;20053;-70
2022/05/20 04:51:02;;;;;;;0.52;0.52;;;12.30;99.90;;;;;;5024382;28;20042;-71
2022/05/20 04:56:13;;;;;;;2.28;1.10;;;12.40;99.90;;;;;;5014455;28;20046;-71
2022/05/20 04:58:38;;;;;;;1.10;0.70;;;12.50;99.90;;;;;;5014480;28;20460;-69
2022/05/20 05:01:04;;;;;;;0.57;0.57;;;12.60;99.90;;;;;;5015000;28;20057;-70
2022/05/20 05:03:30;;;;;;;1.88;1.77;;;12.60;99.90;;;;;;5014737;28;20057;-71
2022/05/20 05:05:56;;;;;;;0.82;0.82;;;12.60;99.90;;;;;;4997166;28;20089;-70
2022/05/20 05:08:22;;;;;;;0.75;0.70;;;12.70;99.90;;;;;;5014615;28;20050;-70
2022/05/20 05:10:48;;;;;;;0.88;0.88;;;12.60;99.90;;;;;;5013032;28;20073;-72
2022/05/20 05:13:15;;;;;;;1.10;1.00;;;12.60;99.90;;;;;;5014483;28;20042;-69
2022/05/20 05:15:43;;;;;;;0.50;0.50;;;13.00;99.90;;;;;;5014321;28;20046;-70
2022/05/20 05:18:12;;;;;;;2.22;0.95;;;13.90;99.90;;;;;;5014385;28;20113;-72
2022/05/20 05:20:47;;;;;;;0.73;0.73;;;14.90;99.90;;;;;;4997329;28;20068;-70
2022/05/20 05:23:14;;;;;;;0.73;0.73;;;16.10;99.90;;;;;;5014050;28;20369;-74
2022/05/20 05:25:40;;;;;;;0.80;0.80;;;17.10;99.90;;;;;;5013221;28;20134;-71
2022/05/20 05:28:06;;;;;;;0.60;0.60;;;18.20;99.90;;;;;;5014113;28;20097;-71
2022/05/20 05:30:32;;;;;;;0.68;0.68;;;19.10;99.90;;;;;;5015866;28;20052;-70
2022/05/20 05:32:58;;;;;;;0.65;0.65;;;19.80;99.90;;;;;;5018041;28;20045;-70
2022/05/20 05:35:25;;;;;;;0.57;0.57;;;20.60;99.90;;;;;;5017818;28;20046;-71
2022/05/20 05:37:51;;;;;;;0.30;0.30;;;20.90;99.90;;;;;;5017205;28;20145;-70
2022/05/20 05:40:23;;;;;;;0.55;0.52;;;21.40;99.90;;;;;;5016739;28;20120;-71
2022/05/20 05:42:49;;;;;;;0.75;0.70;;;21.80;99.90;;;;;;5016883;28;20697;-70
2022/05/20 05:45:19;;;;;;;0.90;0.77;;;22.30;99.90;;;;;;5016332;28;20077;-71
2022/05/20 05:47:48;;;;;;;0.45;0.40;;;22.70;99.90;;;;;;5017021;28;20057;-69
2022/05/20 05:50:14;;;;;;;4.72;1.17;;;22.70;99.90;;;;;;5014594;28;20429;-72
2022/05/20 05:52:40;;;;;;;1.10;0.50;;;22.90;99.90;;;;;;4998106;28;20053;-72
2022/05/20 05:55:06;;;;;;;0.47;0.38;;;23.40;99.90;;;;;;4981488;28;20077;-70
2022/05/20 05:57:31;;;;;;;0.43;0.43;;;23.50;99.90;;;;;;5016330;28;20071;-71
2022/05/20 05:59:57;;;;;;;0.52;0.50;;;23.60;99.90;;;;;;4966587;28;20490;-74
2022/05/20 06:02:22;;;;;;;0.40;0.40;;;23.70;99.90;;;;;;4999071;28;20076;-70
2022/05/20 06:04:49;;;;;;;0.75;0.52;;;24.10;99.90;;;;;;5016100;28;20046;-72
2022/05/20 06:07:15;;;;;;;1.10;0.70;;;24.10;99.90;;;;;;5016277;28;20056;-72
2022/05/20 06:09:40;;;;;;;3.33;0.60;;;24.90;99.90;;;;;;5016429;28;20057;-71
2022/05/20 06:12:07;;;;;;;0.98;0.63;;;25.30;99.10;;;;;;5016679;28;20046;-71
2022/05/20 06:14:33;;;;;;;0.55;0.40;;;25.20;97.50;;;;;;5016213;28;20069;-72
2022/05/20 06:16:58;;;;;;;0.28;0.20;;;24.30;97.80;;;;;;5016176;28;20073;-71
2022/05/20 06:19:24;;;;;;;0.50;0.50;;;23.50;99.60;;;;;;5015003;28;20035;-70
2022/05/20 06:21:50;;;;;;;0.22;0.22;;;23.50;99.10;;;;;;4998370;28;20425;-72
2022/05/20 06:24:15;;;;;;;0.60;0.47;;;23.10;99.10;;;;;;5014832;28;20426;-72
2022/05/20 06:26:41;;;;;;;11.45;0.88;;;23.70;99.90;;;;;;4998133;28;20370;-71
2022/05/20 06:29:08;;;;;;;1.50;0.75;;;24.40;99.40;;;;;;5015892;28;20129;-70
2022/05/20 06:31:33;;;;;;;0.75;0.45;;;24.10;97.90;;;;;;5016273;28;20045;-72
2022/05/20 06:33:59;;;;;;;0.20;0.20;;;23.00;97.90;;;;;;5015718;28;20407;-73
2022/05/20 06:41:55;;;;;;;1.17;0.85;;;22.80;99.90;;;;;;5017021;28;20138;-72
2022/05/20 06:44:21;;;;;;;0.68;0.68;;;23.00;99.90;;;;;;4998829;28;20370;-73
2022/05/20 06:46:47;;;;;;;0.25;0.25;;;23.30;99.20;;;;;;5016691;28;20064;-72
2022/05/20 06:49:13;;;;;;;0.68;0.68;;;23.70;99.90;;;;;;4965149;28;20136;-71
2022/05/20 06:51:39;;;;;;;0.60;0.60;;;23.70;99.10;;;;;;5015599;28;20081;-73
2022/05/20 06:54:08;;;;;;;0.10;0.10;;;23.20;98.70;;;;;;5015380;28;20046;-72
2022/05/20 06:56:36;;;;;;;0.28;0.28;;;22.50;99.90;;;;;;5030537;28;20067;-72
2022/05/20 06:59:03;;;;;;;2.17;1.00;;;23.00;99.80;;;;;;5036069;28;20133;-73
2022/05/20 07:01:31;;;;;;;1.58;1.48;;;23.60;98.20;;;;;;5036103;28;20041;-73
2022/05/20 07:03:58;;;;;;;0.10;0.10;;;23.40;98.80;;;;;;5036274;28;20041;-73
2022/05/20 07:06:25;;;;;;;0.28;0.28;;;22.70;98.20;;;;;;5018513;28;20046;-74
2022/05/20 07:08:51;;;;;;;0.70;0.47;;;22.10;98.90;;;;;;5035906;28;20092;-73
2022/05/20 07:11:19;;;;;;;0.30;0.30;;;21.90;99.90;;;;;;5035927;28;20468;-74
2022/05/20 07:13:46;;;;;;;0.82;0.70;;;22.00;99.90;;;;;;5018606;28;20050;-72
2022/05/20 07:16:12;;;;;;;0.38;0.38;;;22.30;99.90;;;;;;5036128;28;20056;-70
2022/05/20 07:18:38;;;;;;;0.45;0.45;;;22.40;99.90;;;;;;5036462;28;20057;-70
2022/05/20 07:21:04;;;;;;;0.30;0.28;;;22.70;99.90;;;;;;5018319;28;20401;-70
2022/05/20 07:23:31;;;;;;;0.20;0.20;;;23.00;99.50;;;;;;5025418;28;20132;-70
2022/05/20 07:25:57;;;;;;;0.25;0.25;;;22.50;98.80;;;;;;4998541;28;20517;-71
2022/05/20 07:28:23;;;;;;;0.20;0.20;;;22.70;99.90;;;;;;5015458;28;20093;-70
2022/05/20 07:30:50;;;;;;;0.98;0.55;;;22.60;99.70;;;;;;5014675;28;20038;-69
2022/05/20 07:33:15;;;;;;;0.63;0.40;;;22.70;99.90;;;;;;5015115;28;20050;-71
2022/05/20 07:35:41;;;;;;;0.32;0.32;;;22.10;99.90;;;;;;5015762;28;20381;-71
2022/05/20 07:38:08;;;;;;;0.30;0.30;;;22.70;99.90;;;;;;5015960;28;20085;-71
2022/05/20 07:40:33;;;;;;;0.47;0.47;;;22.50;99.80;;;;;;4994643;28;20092;-67
2022/05/20 07:42:59;;;;;;;1.13;1.10;;;22.40;99.90;;;;;;5012057;28;20088;-67
2022/05/20 07:45:25;;;;;;;0.55;0.50;;;22.00;99.90;;;;;;5014549;28;20506;-67
2022/05/20 07:47:50;;;;;;;0.20;0.20;;;22.30;99.90;;;;;;5014502;28;20069;-68
2022/05/20 07:50:16;;;;;;;0.20;0.20;;;22.00;99.90;;;;;;5014024;28;20064;-70
2022/05/20 07:55:36;;;;;;;1.75;0.55;;;22.70;99.90;;;;;;5014833;28;20196;-72
2022/05/20 07:58:05;;;;;;;1.38;0.40;;;22.20;99.90;;;;;;5015175;28;20042;-71
2022/05/20 08:00:32;;;;;;;3.03;0.90;;;22.10;99.90;;;;;;5007617;28;20037;-71
2022/05/20 08:03:00;;;;;;;3.22;0.45;;;21.50;99.90;;;;;;4997947;28;20045;-71
2022/05/20 08:05:27;;;;;;;0.45;0.40;;;21.30;99.90;;;;;;4997977;28;20374;-72
2022/05/20 08:07:59;;;;;;;0.20;0.20;;;20.70;99.90;;;;;;4997537;28;20613;-71
2022/05/20 08:10:27;;;;;;;0.45;0.40;;;20.40;99.90;;;;;;5015399;28;20068;-71
2022/05/20 08:12:53;;;;;;;0.47;0.47;;;20.10;99.90;;;;;;4998374;28;20104;-71
2022/05/20 08:15:18;;;;;;;0.25;0.25;;;20.30;99.90;;;;;;5015670;28;20449;-72
2022/05/20 08:17:44;;;;;;;0.73;0.73;;;20.70;99.90;;;;;;5014799;28;20038;-71
2022/05/20 08:20:16;;;;;;;0.52;0.30;;;21.00;99.90;;;;;;5014293;28;20042;-71
2022/05/20 08:22:42;;;;;;;0.20;0.20;;;21.40;99.90;;;;;;5014919;28;20100;-69
2022/05/20 08:25:08;;;;;;;0.20;0.20;;;21.90;99.90;;;;;;5014033;28;20140;-70
2022/05/20 08:27:34;;;;;;;0.20;0.20;;;22.00;99.90;;;;;;5014398;28;20060;-74
2022/05/20 08:30:07;;;;;;;0.30;0.30;;;21.90;99.50;;;;;;5014421;28;20042;-71
2022/05/20 08:32:33;;;;;;;0.35;0.30;;;21.70;99.90;;;;;;4982025;28;20476;-71
2022/05/20 08:34:58;;;;;;;0.30;0.30;;;21.60;99.90;;;;;;5010615;28;20034;-73
2022/05/20 08:37:24;;;;;;;0.30;0.30;;;21.50;99.90;;;;;;5013629;28;20463;-71
2022/05/20 08:39:49;;;;;;;0.30;0.30;;;21.20;99.90;;;;;;5014369;28;20046;-72
2022/05/20 08:42:20;;;;;;;0.28;0.22;;;21.00;99.90;;;;;;5015088;28;20056;-71
2022/05/20 08:44:47;;;;;;;0.20;0.20;;;20.80;99.90;;;;;;5014250;28;20046;-70
2022/05/20 08:47:46;;;;;;;0.20;0.20;;;20.80;99.90;;;;;;5014620;28;20073;-71
2022/05/20 08:50:22;;;;;;;0.30;0.30;;;20.70;99.90;;;;;;5013951;28;20462;-70
2022/05/20 08:52:51;;;;;;;0.20;0.20;;;20.90;99.90;;;;;;5016596;28;20124;-70
2022/05/20 08:55:17;;;;;;;0.30;0.30;;;21.50;99.90;;;;;;5014923;28;20046;-72
2022/05/20 08:57:55;;;;;;;0.52;0.43;;;22.10;99.90;;;;;;5014967;28;20061;-71
2022/05/20 09:00:21;;;;;;;0.20;0.20;;;22.60;99.70;;;;;;5014523;28;20458;-71
2022/05/20 09:02:47;;;;;;;0.20;0.20;;;22.40;99.90;;;;;;5014314;28;20049;-72
2022/05/20 09:05:21;;;;;;;0.65;0.65;;;22.50;99.90;;;;;;5015969;28;20120;-71
2022/05/20 09:08:20;;;;;;;0.82;0.50;;;22.90;99.50;;;;;;5018490;28;20056;-72
2022/05/20 09:10:55;;;;;;;0.20;0.20;;;22.70;99.90;;;;;;4981367;28;20058;-73
2022/05/20 09:16:20;;;;;;;0.20;0.20;;;22.00;99.80;;;;;;5017487;28;20042;-71
2022/05/20 09:18:49;;;;;;;2.08;0.47;;;21.80;99.90;;;;;;5016926;28;20385;-71
2022/05/20 09:21:24;;;;;;;0.28;0.28;;;21.90;99.90;;;;;;5017950;28;20076;-72
2022/05/20 09:23:53;;;;;;;0.65;0.65;;;22.00;99.90;;;;;;5018161;28;20038;-68
2022/05/20 09:26:25;;;;;;;0.10;0.10;;;21.70;99.90;;;;;;5017471;28;20041;-69
2022/05/20 09:28:56;;;;;;;0.30;0.30;;;21.70;99.90;;;;;;5018079;28;20064;-68
2022/05/20 09:31:51;;;;;;;0.40;0.35;;;21.80;99.90;;;;;;5016801;28;20042;-71
2022/05/20 09:34:26;;;;;;;0.28;0.28;;;22.00;99.90;;;;;;5000488;28;20089;-71
2022/05/20 09:37:00;;;;;;;0.32;0.32;;;21.90;99.90;;;;;;5017529;28;20446;-71
2022/05/20 09:39:42;;;;;;;0.30;0.30;;;22.00;99.90;;;;;;5017467;28;20045;-72
2022/05/20 09:42:15;;;;;;;0.30;0.30;;;22.00;99.90;;;;;;5017720;28;20119;-71
2022/05/20 09:44:45;;;;;;;1.95;0.75;;;22.10;99.90;;;;;;5000422;28;20536;-70
2022/05/20 09:47:24;;;;;;;0.90;0.35;;;22.10;97.70;;;;;;4998846;28;20038;-72
2022/05/20 09:50:14;;;;;;;0.30;0.30;;;21.80;97.30;;;;;;4997670;28;20072;-71
2022/05/20 09:52:58;;;;;;;0.32;0.32;;;21.90;99.90;;;;;;5000249;28;20046;-70
2022/05/20 09:55:32;;;;;;;0.73;0.30;;;22.00;99.70;;;;;;5017484;28;20471;-71
2022/05/20 09:58:15;;;;;;;0.20;0.20;;;21.90;98.80;;;;;;5017472;28;20057;-72
2022/05/20 10:00:48;;;;;;;0.13;0.13;;;21.70;99.90;;;;;;5017315;28;20129;-72
2022/05/20 10:03:25;;;;;;;0.10;0.10;;;21.60;99.90;;;;;;5016881;28;20484;-71
2022/05/20 10:06:11;;;;;;;0.30;0.30;;;21.80;99.90;;;;;;5017180;28;20034;-70
2022/05/20 10:08:50;;;;;;;0.88;0.82;;;21.90;99.70;;;;;;5000173;28;20056;-71
2022/05/20 10:11:15;;;;;;;0.30;0.30;;;21.70;99.00;;;;;;5000267;28;20120;-73
2022/05/20 10:13:53;;;;;;;0.20;0.20;;;21.50;99.10;;;;;;5013872;28;20046;-72
2022/05/20 10:16:34;;;;;;;0.13;0.13;;;21.40;99.90;;;;;;4998508;28;20058;-71
2022/05/20 10:19:26;;;;;;;0.75;0.50;;;21.00;99.90;;;;;;4999799;28;20093;-72
2022/05/20 10:22:10;;;;;;;0.10;0.10;;;20.90;99.90;;;;;;5016900;28;20418;-70
2022/05/20 10:24:54;;;;;;;0.50;0.40;;;21.00;99.90;;;;;;4994256;28;20136;-73
2022/05/20 10:27:26;;;;;;;0.40;0.40;;;21.10;99.90;;;;;;5012408;28;20057;-72
2022/05/20 10:33:11;;;;;;;0.93;0.93;;;21.00;99.90;;;;;;5016809;28;20053;-71
2022/05/20 10:35:54;;;;;;;0.60;0.55;;;20.80;99.90;;;;;;4999696;28;20477;-71
2022/05/20 10:38:42;;;;;;;1.65;1.27;;;21.40;99.90;;;;;;5015376;28;20076;-70
2022/05/20 10:41:31;;;;;;;0.35;0.35;;;21.40;99.90;;;;;;4998643;28;20108;-69
2022/05/20 10:50:28;;;;;;;0.52;0.47;;;21.80;99.90;;;;;;5015575;28;20038;-71
2022/05/20 10:53:22;;;;;;;0.20;0.20;;;21.80;99.90;;;;;;5012892;28;20045;-70
2022/05/20 10:56:07;;;;;;;1.08;0.60;;;22.20;99.90;;;;;;5016508;28;20050;-72
2022/05/20 10:58:47;;;;;;;0.45;0.45;;;21.80;99.60;;;;;;5016479;28;20056;-71
2022/05/20 11:01:49;;;;;;;1.00;0.70;;;22.00;99.90;;;;;;4998765;28;20081;-71
2022/05/20 11:04:42;;;;;;;0.55;0.55;;;22.30;99.40;;;;;;4993540;28;20061;-72
2022/05/20 11:07:23;;;;;;;0.40;0.40;;;21.80;99.80;;;;;;5015884;28;20049;-71
2022/05/20 11:10:12;;;;;;;0.45;0.45;;;21.70;99.90;;;;;;5015792;28;20104;-72
2022/05/20 11:12:59;;;;;;;0.40;0.40;;;21.80;98.30;;;;;;5016275;28;20054;-72
2022/05/20 11:15:36;;;;;;;0.30;0.30;;;22.00;99.90;;;;;;5016132;28;20045;-72
2022/05/20 11:18:37;;;;;;;0.52;0.47;;;22.30;99.70;;;;;;5016512;28;20046;-71
2022/05/20 11:21:20;;;;;;;1.20;0.73;;;22.50;98.30;;;;;;4932425;29;20530;-72
2022/05/20 11:24:13;;;;;;;1.00;0.80;;;22.50;96.20;;;;;;5004796;28;20058;-71
2022/05/20 11:27:06;;;;;;;0.40;0.40;;;22.50;97.80;;;;;;5015501;28;20053;-71
2022/05/20 11:29:56;;;;;;;0.43;0.40;;;22.30;96.60;;;;;;5016073;28;20085;-72
2022/05/20 11:32:29;;;;;;;1.10;0.90;;;22.60;96.00;;;;;;5015582;28;20462;-73
2022/05/20 11:35:09;;;;;;;0.40;0.40;;;21.80;95.20;;;;;;5015841;28;20058;-73
2022/05/20 11:37:56;;;;;;;0.10;0.10;;;21.80;95.30;;;;;;5015581;28;20463;-70
2022/05/20 11:40:40;;;;;;;0.30;0.30;;;21.80;95.30;;;;;;5016017;28;20054;-71
2022/05/20 11:43:11;;;;;;;0.20;0.20;;;21.80;96.40;;;;;;5015799;28;20516;-72
2022/05/20 11:45:56;;;;;;;0.38;0.35;;;21.90;93.80;;;;;;5015506;28;20132;-72
2022/05/20 11:48:27;;;;;;;0.57;0.57;;;22.00;94.70;;;;;;4997825;28;20049;-73
2022/05/20 11:51:14;;;;;;;0.28;0.28;;;22.00;95.30;;;;;;5015546;28;20045;-73
2022/05/20 11:53:50;;;;;;;0.30;0.30;;;22.10;94.40;;;;;;5015970;28;20145;-70
2022/05/20 11:56:47;;;;;;;0.30;0.30;;;22.40;94.40;;;;;;5015345;28;20052;-71
2022/05/20 11:59:22;;;;;;;0.22;0.22;;;22.60;95.70;;;;;;5014676;28;20041;-70
2022/05/20 12:01:50;;;;;;;0.20;0.20;;;22.80;95.40;;;;;;5014758;28;20083;-72
2022/05/20 12:04:18;;;;;;;0.30;0.30;;;22.60;95.00;;;;;;5015313;28;20050;-72
2022/05/20 12:06:51;;;;;;;0.30;0.30;;;22.60;94.90;;;;;;5013006;28;20053;-72
2022/05/20 12:09:44;;;;;;;0.13;0.13;;;22.60;93.90;;;;;;4997434;28;20053;-73
2022/05/20 12:12:50;;;;;;;0.47;0.47;;;22.50;93.10;;;;;;5015409;28;20071;-71
2022/05/20 12:15:19;;;;;;;0.20;0.20;;;22.40;92.40;;;;;;5014884;28;20529;-71
2022/05/20 12:17:48;;;;;;;0.45;0.40;;;22.00;91.30;;;;;;4997600;28;20046;-71
2022/05/20 12:26:18;;;;;;;1.77;1.38;;;22.30;91.40;;;;;;4997680;28;20046;-73
2022/05/20 12:28:44;;;;;;;0.73;0.50;;;22.30;90.10;;;;;;4986387;28;20061;-72
2022/05/20 12:31:25;;;;;;;0.35;0.35;;;22.50;89.90;;;;;;5014687;28;20046;-72
2022/05/20 12:33:50;;;;;;;0.30;0.30;;;22.50;88.20;;;;;;5013658;28;20513;-70
2022/05/20 12:36:31;;;;;;;0.50;0.50;;;22.60;88.10;;;;;;4997498;28;20045;-69
2022/05/20 12:39:09;;;;;;;0.30;0.30;;;22.70;88.70;;;;;;5014888;28;20200;-69
2022/05/20 12:41:43;;;;;;;0.43;0.30;;;22.60;87.10;;;;;;4990732;28;20054;-68
2022/05/20 12:44:17;;;;;;;0.20;0.20;;;22.50;91.10;;;;;;5014104;28;20366;-67
2022/05/20 12:47:08;;;;;;;0.20;0.20;;;22.70;91.80;;;;;;4996991;28;20049;-69
2022/05/20 12:49:48;;;;;;;0.30;0.30;;;22.90;91.40;;;;;;5006987;28;20052;-68
2022/05/20 12:52:17;;;;;;;0.65;0.45;;;22.70;91.60;;;;;;5004311;28;20042;-70
2022/05/20 12:54:46;;;;;;;0.30;0.30;;;22.70;92.80;;;;;;4996847;28;20054;-69
2022/05/20 12:57:18;;;;;;;0.63;0.50;;;22.60;92.70;;;;;;5022006;28;20045;-72
2022/05/20 12:59:51;;;;;;;0.13;0.13;;;22.60;93.00;;;;;;5015691;28;20050;-71
2022/05/20 13:02:20;;;;;;;0.30;0.30;;;22.70;91.40;;;;;;4997392;28;20069;-72
2022/05/20 13:05:17;;;;;;;0.28;0.28;;;22.30;90.90;;;;;;5013902;28;20119;-70
2022/05/20 13:07:43;;;;;;;0.50;0.47;;;22.00;89.40;;;;;;5013305;28;20034;-71
2022/05/20 13:10:29;;;;;;;0.38;0.38;;;22.10;89.50;;;;;;4997051;28;20061;-71
2022/05/20 13:13:00;;;;;;;0.20;0.20;;;22.00;88.20;;;;;;4996833;28;20060;-71
2022/05/20 13:15:25;;;;;;;1.67;0.55;;;21.90;90.20;;;;;;5010137;28;20065;-71
2022/05/20 13:17:58;;;;;;;0.50;0.45;;;21.80;92.20;;;;;;5013760;28;20096;-71
2022/05/20 13:20:25;;;;;;;3.80;0.45;;;21.80;92.50;;;;;;4996637;28;20132;-71
2022/05/20 13:22:51;;;;;;;0.38;0.38;;;21.60;92.50;;;;;;5014276;28;20050;-72
2022/05/20 13:25:18;;;;;;;0.75;0.70;;;21.40;93.40;;;;;;4997080;28;20064;-71
2022/05/20 13:27:48;;;;;;;8.10;1.95;;;21.20;95.10;;;;;;5013817;28;20466;-70
2022/05/20 13:30:18;;;;;;;0.60;0.60;;;20.90;95.20;;;;;;5013663;28;20141;-68
2022/05/20 13:32:44;;;;;;;0.20;0.20;;;20.80;95.50;;;;;;5013929;28;20048;-71
2022/05/20 13:35:10;;;;;;;0.65;0.45;;;20.70;97.20;;;;;;5014240;28;20374;-69
2022/05/20 13:37:50;;;;;;;0.40;0.40;;;20.70;97.10;;;;;;4997021;28;20041;-70
2022/05/20 13:40:30;;;;;;;2.25;0.75;;;20.50;96.80;;;;;;4996892;28;20053;-72
2022/05/20 13:42:57;;;;;;;0.70;0.50;;;20.40;97.30;;;;;;5013358;28;20050;-73
2022/05/20 13:51:06;;;;;;;1.05;0.85;;;19.90;98.30;;;;;;4984235;28;20161;-71
2022/05/20 13:53:34;;;;;;;1.85;0.98;;;19.80;98.10;;;;;;4999283;28;20386;-73
2022/05/20 13:56:00;;;;;;;1.08;0.70;;;19.80;98.60;;;;;;5017513;28;20104;-74
2022/05/20 13:58:26;;;;;;;0.40;0.40;;;19.70;99.00;;;;;;4997607;28;20049;-72
2022/05/20 14:00:51;;;;;;;0.40;0.40;;;19.60;99.90;;;;;;5012297;28;20116;-72